Terminal Aerodrome Forecast
Issued by NWS

Home | Current Version | Previous Version | Text Only | Print | Product List | Glossary On
Versions: 1 2 3 4 5 6 7 8 9 10 11 12 13
000
FTUS43 KIND 281700
TAFBMG
TAF
KBMG 281720Z 2818/0118 12009KT P6SM SCT025 OVC060
     FM010000 10005KT 2SM -SN BR OVC015
     FM010300 VRB04KT 1SM -SN BR OVC005=

USA.gov is the U.S. government's official web portal to all federal, state and local government web resources and services.